Time;durP1;ratioP1;P1;durP2;ratioP2;P2;SDS_P1;SDS_P2;PMS_P1;PMS_P2;Temp;Humidity;BMP_temperature;BMP_pressure;BME280_temperature;BME280_humidity;BME280_pressure;Samples;Min_cycle;Max_cycle;Signal;HPM_P1;HPM_P2
2022/03/20 00:01:17;;;;;;;9.30;6.07;;;5.20;99.90;;;;;;5035628;28;20120;-78
2022/03/20 00:03:44;;;;;;;9.00;5.70;;;5.20;99.90;;;;;;5050844;28;20128;-78
2022/03/20 00:06:10;;;;;;;8.55;5.63;;;5.10;99.90;;;;;;5035715;28;20045;-78
2022/03/20 00:08:35;;;;;;;10.23;5.70;;;5.10;99.90;;;;;;5051936;28;20053;-78
2022/03/20 00:11:04;;;;;;;8.93;5.60;;;5.10;99.90;;;;;;5052299;28;20287;-77
2022/03/20 00:13:30;;;;;;;9.55;5.78;;;5.10;99.90;;;;;;5051748;28;20110;-78
2022/03/20 00:15:57;;;;;;;;;;;5.10;99.90;;;;;;5052338;28;20056;-77
2022/03/20 00:18:25;;;;;;;13.98;6.93;;;5.40;99.90;;;;;;5051553;28;19917;-78
2022/03/20 00:20:59;;;;;;;9.98;6.07;;;5.10;99.90;;;;;;5031876;28;20049;-78
2022/03/20 00:23:27;;;;;;;11.85;5.70;;;5.10;99.90;;;;;;5031614;28;20083;-78
2022/03/20 00:25:54;;;;;;;9.38;5.90;;;5.10;99.90;;;;;;5015241;28;20049;-78
2022/03/20 00:28:23;;;;;;;9.57;5.70;;;5.10;99.90;;;;;;5031761;28;20045;-78
2022/03/20 00:30:49;;;;;;;12.50;5.85;;;5.10;99.90;;;;;;5031747;28;20049;-78
2022/03/20 00:33:15;;;;;;;10.27;5.65;;;5.10;99.90;;;;;;5031657;28;20421;-78
2022/03/20 00:35:41;;;;;;;8.10;5.57;;;5.10;99.90;;;;;;5031732;28;20089;-78
2022/03/20 00:38:07;;;;;;;12.02;6.10;;;5.00;99.90;;;;;;5051601;28;20124;-78
2022/03/20 00:40:34;;;;;;;10.95;5.65;;;5.00;99.90;;;;;;5051176;28;20037;-78
2022/03/20 00:43:00;;;;;;;8.32;5.40;;;5.00;99.90;;;;;;5051348;28;20044;-78
2022/03/20 00:45:28;;;;;;;11.13;6.43;;;5.00;99.90;;;;;;5051145;28;20040;-78
2022/03/20 00:47:54;;;;;;;7.88;5.57;;;5.00;99.90;;;;;;5051614;28;20070;-78
2022/03/20 00:50:21;;;;;;;10.95;5.95;;;5.00;99.90;;;;;;5034947;28;20044;-78
2022/03/20 00:52:47;;;;;;;;;;;4.90;99.90;;;;;;5034439;28;20039;-78
2022/03/20 00:55:12;;;;;;;10.90;5.93;;;5.40;99.90;;;;;;5034552;28;20007;-78
2022/03/20 00:57:38;;;;;;;8.95;5.78;;;4.80;99.90;;;;;;5034509;28;20048;-78
2022/03/20 01:00:05;;;;;;;9.33;5.90;;;4.80;99.90;;;;;;5034672;28;20123;-78
2022/03/20 01:02:42;;;;;;;9.18;5.63;;;4.80;99.90;;;;;;5050808;28;20488;-79
2022/03/20 01:05:08;;;;;;;8.23;5.82;;;5.20;99.90;;;;;;5051199;28;20033;-78
2022/03/20 01:07:34;;;;;;;12.18;6.30;;;4.80;99.90;;;;;;5050143;28;20041;-78
2022/03/20 01:10:06;;;;;;;12.65;6.20;;;4.70;99.90;;;;;;5030822;28;20470;-78
2022/03/20 01:12:33;;;;;;;14.00;6.28;;;4.70;99.90;;;;;;5030734;28;20053;-78
2022/03/20 01:14:59;;;;;;;;;;;4.70;99.90;;;;;;4998515;28;20053;-78
2022/03/20 01:17:25;;;;;;;14.10;6.95;;;4.60;99.90;;;;;;5030575;28;19956;-78
2022/03/20 01:19:51;;;;;;;15.98;6.00;;;4.60;99.90;;;;;;5031053;28;20088;-78
2022/03/20 01:22:17;;;;;;;11.02;5.93;;;4.60;99.90;;;;;;5030892;28;20559;-78
2022/03/20 01:24:43;;;;;;;12.15;6.43;;;4.60;99.90;;;;;;5039910;28;20036;-78
2022/03/20 01:27:09;;;;;;;9.88;6.22;;;4.60;99.90;;;;;;5034279;28;20045;-78
2022/03/20 01:29:35;;;;;;;12.65;6.22;;;4.60;99.90;;;;;;5050122;28;20125;-78
2022/03/20 01:32:01;;;;;;;11.32;6.05;;;4.50;99.90;;;;;;5050357;28;20049;-78
2022/03/20 01:34:27;;;;;;;9.32;5.72;;;4.80;99.90;;;;;;5033659;28;20041;-78
2022/03/20 01:36:53;;;;;;;15.30;6.88;;;4.50;99.90;;;;;;5050343;28;20450;-77
2022/03/20 01:39:20;;;;;;;12.48;6.53;;;4.40;99.90;;;;;;5050397;28;20041;-78
2022/03/20 01:41:47;;;;;;;11.48;6.43;;;4.40;99.90;;;;;;5049639;28;20084;-78
2022/03/20 01:44:13;;;;;;;14.88;6.90;;;4.40;99.90;;;;;;5050611;28;20041;-77
2022/03/20 01:46:39;;;;;;;;;;;4.30;99.90;;;;;;5050523;28;20049;-78
2022/03/20 01:49:05;;;;;;;10.68;6.80;;;4.30;99.90;;;;;;5050110;28;19923;-77
2022/03/20 01:54:15;;;;;;;12.13;6.32;;;4.60;99.90;;;;;;5050504;28;20539;-78
2022/03/20 01:56:48;;;;;;;10.52;6.22;;;4.20;99.90;;;;;;5032978;28;20048;-77
2022/03/20 01:59:16;;;;;;;15.35;6.82;;;4.20;99.90;;;;;;5050234;28;20045;-77
2022/03/20 02:01:42;;;;;;;12.25;6.78;;;4.20;99.90;;;;;;5049699;28;20041;-77
2022/03/20 02:04:11;;;;;;;;;;;4.30;99.90;;;;;;5049554;28;20128;-78
2022/03/20 02:06:37;;;;;;;12.30;7.18;;;4.10;99.90;;;;;;5032962;28;19917;-77
2022/03/20 02:09:04;;;;;;;16.52;6.63;;;4.10;99.90;;;;;;5049270;28;20118;-77
2022/03/20 02:11:30;;;;;;;13.85;7.97;;;4.10;99.90;;;;;;5032914;28;20052;-78
2022/03/20 02:13:56;;;;;;;11.37;6.90;;;4.10;99.90;;;;;;5048620;28;20128;-78
2022/03/20 02:16:22;;;;;;;15.73;7.65;;;4.00;99.90;;;;;;5049851;28;20638;-78
2022/03/20 02:18:48;;;;;;;11.25;6.75;;;4.00;99.90;;;;;;5031952;28;20049;-78
2022/03/20 02:21:15;;;;;;;11.60;7.22;;;4.00;99.90;;;;;;5049594;28;20249;-78
2022/03/20 02:23:43;;;;;;;13.55;7.30;;;3.90;99.90;;;;;;5032789;28;20116;-78
2022/03/20 02:26:09;;;;;;;10.60;7.47;;;3.90;99.90;;;;;;5049138;28;20476;-78
2022/03/20 02:28:35;;;;;;;13.65;7.53;;;3.90;99.90;;;;;;5049536;28;20053;-79
2022/03/20 02:31:01;;;;;;;15.07;8.45;;;3.90;99.90;;;;;;5049434;28;20041;-79
2022/03/20 02:33:29;;;;;;;13.57;7.65;;;3.90;99.90;;;;;;5049587;28;20120;-78
2022/03/20 02:35:55;;;;;;;15.02;7.80;;;3.80;99.90;;;;;;5049215;28;20076;-78
2022/03/20 02:38:21;;;;;;;12.93;8.35;;;3.90;99.90;;;;;;5049193;28;20094;-77
2022/03/20 02:40:54;;;;;;;12.95;7.60;;;5.20;99.90;;;;;;5048361;28;20036;-78
2022/03/20 02:43:20;;;;;;;11.98;7.88;;;3.90;99.90;;;;;;5032905;28;20036;-77
2022/03/20 02:45:47;;;;;;;15.68;8.65;;;3.90;99.90;;;;;;5048896;28;20515;-78
2022/03/20 02:48:13;;;;;;;14.38;8.20;;;3.80;99.90;;;;;;5049507;28;20044;-77
2022/03/20 02:50:38;;;;;;;15.18;8.25;;;3.80;99.90;;;;;;5048851;28;20492;-79
2022/03/20 02:53:13;;;;;;;15.67;9.03;;;3.80;99.90;;;;;;5049116;28;20632;-79
2022/03/20 02:55:41;;;;;;;13.80;8.73;;;3.80;99.90;;;;;;5032748;28;20279;-78
2022/03/20 02:58:12;;;;;;;15.50;9.55;;;4.10;99.90;;;;;;5048677;28;20037;-78
2022/03/20 03:00:40;;;;;;;14.95;8.77;;;3.80;99.90;;;;;;5048840;28;20041;-78
2022/03/20 03:03:08;;;;;;;14.00;9.23;;;3.80;99.90;;;;;;5050139;28;20048;-78
2022/03/20 03:05:34;;;;;;;17.90;9.80;;;3.80;99.90;;;;;;5032146;28;20040;-78
2022/03/20 03:10:59;;;;;;;16.52;9.13;;;3.70;99.90;;;;;;5048444;28;20602;-78
2022/03/20 03:13:39;;;;;;;16.65;9.23;;;3.70;99.90;;;;;;5049316;28;20404;-78
2022/03/20 03:16:09;;;;;;;15.88;9.93;;;3.70;99.90;;;;;;5048565;28;20045;-78
2022/03/20 03:18:38;;;;;;;17.50;9.63;;;3.60;99.90;;;;;;5048693;28;20049;-78
2022/03/20 03:21:04;;;;;;;16.08;9.90;;;4.10;99.90;;;;;;5048868;28;20049;-78
2022/03/20 03:23:31;;;;;;;16.73;10.27;;;3.60;99.90;;;;;;5050297;28;20076;-78
2022/03/20 03:25:57;;;;;;;15.10;10.18;;;4.00;99.90;;;;;;5048625;28;20048;-77
2022/03/20 03:28:28;;;;;;;15.15;9.85;;;3.60;99.90;;;;;;5048874;28;20064;-78
2022/03/20 03:30:54;;;;;;;19.30;10.35;;;3.60;99.90;;;;;;5050562;28;20059;-78
2022/03/20 03:33:21;;;;;;;17.13;10.00;;;3.60;99.90;;;;;;5052503;28;20045;-77
2022/03/20 03:35:54;;;;;;;18.70;10.02;;;3.50;99.90;;;;;;5035791;28;20044;-78
2022/03/20 03:38:34;;;;;;;18.40;11.05;;;3.50;99.90;;;;;;5052865;28;20127;-77
2022/03/20 03:41:00;;;;;;;18.77;10.43;;;3.50;99.90;;;;;;5054211;28;20037;-77
2022/03/20 03:43:27;;;;;;;20.90;11.07;;;3.50;99.90;;;;;;5052881;28;20076;-78
2022/03/20 03:45:53;;;;;;;17.95;11.25;;;3.50;99.90;;;;;;5052549;28;20041;-78
2022/03/20 03:48:19;;;;;;;18.40;10.50;;;3.50;99.90;;;;;;5053067;28;20041;-78
2022/03/20 03:50:47;;;;;;;16.95;10.23;;;3.50;99.90;;;;;;5052023;28;20048;-78
2022/03/20 03:53:13;;;;;;;16.35;10.15;;;3.50;99.90;;;;;;5052749;28;20041;-78
2022/03/20 03:55:41;;;;;;;;;;;3.40;99.90;;;;;;5052461;28;20041;-78
2022/03/20 03:58:07;;;;;;;18.73;11.23;;;3.40;99.90;;;;;;5052573;28;20370;-78
2022/03/20 04:00:34;;;;;;;21.80;11.38;;;3.70;99.90;;;;;;5052529;28;20037;-78
2022/03/20 04:03:00;;;;;;;21.73;11.57;;;3.40;99.90;;;;;;5035432;28;20041;-78
2022/03/20 04:05:27;;;;;;;21.52;11.88;;;3.30;99.90;;;;;;5035825;28;20124;-78
2022/03/20 04:07:54;;;;;;;16.02;10.80;;;3.30;99.90;;;;;;5053043;28;20045;-78
2022/03/20 04:10:22;;;;;;;20.58;11.35;;;3.20;99.90;;;;;;5018974;28;20044;-79
2022/03/20 04:12:49;;;;;;;18.52;11.55;;;3.20;99.90;;;;;;5051646;28;20033;-78
2022/03/20 04:15:17;;;;;;;19.55;11.73;;;3.20;99.90;;;;;;5052402;28;20365;-78
2022/03/20 04:17:43;;;;;;;15.05;11.30;;;3.10;99.90;;;;;;5051930;28;20106;-77
2022/03/20 04:20:12;;;;;;;21.77;11.95;;;3.20;99.90;;;;;;5051733;28;20040;-78
2022/03/20 04:22:40;;;;;;;18.23;11.65;;;3.20;99.90;;;;;;5034572;28;20045;-78
2022/03/20 04:25:06;;;;;;;18.10;11.38;;;3.10;99.90;;;;;;5050645;28;20052;-78
2022/03/20 04:27:32;;;;;;;;;;;3.10;99.90;;;;;;5035752;28;20041;-78
2022/03/20 04:29:58;;;;;;;19.65;11.77;;;3.10;99.90;;;;;;5051543;28;20016;-78
2022/03/20 04:32:24;;;;;;;19.75;12.13;;;3.40;99.90;;;;;;5035445;28;20480;-78
2022/03/20 04:34:52;;;;;;;21.35;11.88;;;3.00;99.90;;;;;;5051268;28;20094;-78
2022/03/20 04:37:19;;;;;;;19.33;11.63;;;3.00;99.90;;;;;;5051943;28;20638;-78
2022/03/20 04:39:44;;;;;;;18.95;12.13;;;3.00;99.90;;;;;;5034923;28;20120;-78
2022/03/20 04:42:10;;;;;;;19.77;12.67;;;3.00;99.90;;;;;;5050745;28;20128;-78
2022/03/20 04:44:39;;;;;;;17.90;11.93;;;3.00;99.90;;;;;;5051194;28;20287;-78
2022/03/20 05:00:54;;;;;;;20.20;12.60;;;3.00;99.90;;;;;;5051870;28;20139;-79
2022/03/20 05:03:20;;;;;;;23.45;13.20;;;2.80;99.90;;;;;;5051201;28;20045;-79
2022/03/20 05:05:46;;;;;;;20.40;12.70;;;2.80;99.90;;;;;;5050918;28;20040;-78
2022/03/20 05:08:11;;;;;;;22.88;12.98;;;3.10;99.90;;;;;;5050954;28;20041;-78
2022/03/20 05:13:42;;;;;;;20.42;13.10;;;3.10;99.90;;;;;;4971362;28;20055;-78
2022/03/20 05:16:08;;;;;;;;;;;2.80;99.90;;;;;;4954943;28;20035;-78
2022/03/20 05:18:34;;;;;;;21.27;12.98;;;2.70;99.90;;;;;;4998329;28;19922;-78
2022/03/20 05:21:00;;;;;;;21.37;13.90;;;2.70;99.90;;;;;;5050145;28;20120;-78
2022/03/20 05:23:25;;;;;;;20.37;13.40;;;2.70;99.90;;;;;;5050825;28;20279;-78
2022/03/20 05:25:51;;;;;;;21.40;13.17;;;2.70;99.90;;;;;;5050348;28;20052;-78
2022/03/20 05:28:17;;;;;;;22.15;13.50;;;2.70;99.90;;;;;;5050926;28;20041;-78
2022/03/20 05:30:43;;;;;;;21.50;13.43;;;2.70;99.90;;;;;;5050519;28;20043;-78
2022/03/20 05:33:10;;;;;;;24.90;13.60;;;2.60;99.90;;;;;;5034186;28;20397;-78
2022/03/20 05:35:37;;;;;;;21.77;14.02;;;3.10;99.90;;;;;;5050896;28;20401;-78
2022/03/20 05:38:03;;;;;;;21.55;13.45;;;2.60;99.90;;;;;;5049957;28;20084;-78
2022/03/20 05:40:29;;;;;;;20.92;13.68;;;2.60;99.90;;;;;;5051819;28;20476;-78
2022/03/20 05:42:54;;;;;;;23.40;13.70;;;2.60;99.90;;;;;;5049771;28;20488;-78
2022/03/20 05:45:20;;;;;;;25.80;14.23;;;2.60;99.90;;;;;;5050527;28;20124;-78
2022/03/20 05:47:46;;;;;;;22.13;13.55;;;2.60;99.90;;;;;;5049997;28;20048;-78
2022/03/20 05:50:12;;;;;;;23.10;14.48;;;2.50;99.90;;;;;;5050076;28;20044;-79
2022/03/20 05:52:38;;;;;;;22.08;14.45;;;2.50;99.90;;;;;;5050308;28;20067;-79
2022/03/20 05:55:04;;;;;;;21.63;13.93;;;2.50;99.90;;;;;;5032166;28;20041;-79
2022/03/20 06:00:27;;;;;;;22.33;14.65;;;2.50;99.90;;;;;;5049942;28;20106;-78
2022/03/20 06:02:52;;;;;;;22.50;14.13;;;2.60;99.90;;;;;;5049463;28;20130;-77
2022/03/20 06:05:19;;;;;;;23.38;14.38;;;2.60;99.90;;;;;;5049731;28;20500;-78
2022/03/20 06:07:49;;;;;;;;;;;2.70;99.90;;;;;;5050395;28;20059;-78
2022/03/20 06:10:16;;;;;;;21.85;14.98;;;2.60;99.90;;;;;;5049688;28;20379;-78
2022/03/20 06:12:43;;;;;;;22.42;14.35;;;2.60;99.90;;;;;;5049844;28;20182;-78
2022/03/20 06:15:09;;;;;;;24.13;14.82;;;2.70;99.90;;;;;;5049049;28;20099;-78
2022/03/20 06:17:47;;;;;;;;;;;2.70;99.90;;;;;;5050209;28;20043;-79
2022/03/20 06:20:15;;;;;;;27.05;14.68;;;2.70;99.90;;;;;;5049635;28;19954;-79
2022/03/20 06:22:42;;;;;;;24.50;14.65;;;2.80;99.90;;;;;;5049789;28;20618;-79
2022/03/20 06:25:09;;;;;;;23.35;14.32;;;2.80;99.90;;;;;;5048369;28;20497;-78
2022/03/20 06:27:53;;;;;;;22.55;14.10;;;2.80;99.90;;;;;;5029248;28;20077;-79
2022/03/20 06:30:20;;;;;;;24.42;15.52;;;2.80;99.90;;;;;;5029832;28;20041;-79
2022/03/20 06:32:47;;;;;;;24.25;15.27;;;2.90;99.90;;;;;;5030053;28;20362;-79
2022/03/20 06:35:14;;;;;;;21.02;14.90;;;2.90;99.90;;;;;;5012856;28;20520;-79
2022/03/20 06:37:44;;;;;;;24.40;15.25;;;3.00;99.90;;;;;;5029522;28;20124;-78
2022/03/20 06:40:12;;;;;;;25.90;14.30;;;3.30;99.90;;;;;;5028829;28;20084;-79
2022/03/20 06:42:38;;;;;;;24.85;15.63;;;3.10;99.90;;;;;;5029669;28;20417;-78
2022/03/20 06:45:08;;;;;;;24.17;14.97;;;3.50;99.90;;;;;;5035310;28;20148;-78
2022/03/20 06:47:35;;;;;;;23.13;15.13;;;3.20;99.90;;;;;;5049559;28;20279;-78
2022/03/20 06:50:02;;;;;;;23.65;14.55;;;3.20;99.90;;;;;;5032610;28;20094;-78
2022/03/20 06:52:28;;;;;;;22.65;14.38;;;3.30;99.90;;;;;;5049429;28;20388;-78
2022/03/20 06:54:58;;;;;;;22.98;14.35;;;3.30;99.90;;;;;;5048633;28;20119;-77
2022/03/20 06:57:26;;;;;;;23.77;14.80;;;3.40;99.90;;;;;;5049464;28;20533;-78
2022/03/20 06:59:53;;;;;;;22.52;15.10;;;3.40;99.90;;;;;;5048897;28;20056;-77
2022/03/20 07:02:19;;;;;;;22.42;14.23;;;3.50;99.90;;;;;;5048900;28;20049;-78
2022/03/20 07:04:48;;;;;;;22.75;14.38;;;3.60;99.90;;;;;;5050136;28;20447;-78
2022/03/20 07:07:15;;;;;;;26.55;14.57;;;3.70;99.90;;;;;;5055273;28;20523;-78
2022/03/20 07:09:41;;;;;;;23.10;14.65;;;3.80;99.90;;;;;;5039237;28;20057;-78
2022/03/20 07:12:08;;;;;;;23.58;14.45;;;4.30;99.90;;;;;;5055165;28;20049;-78
2022/03/20 07:14:34;;;;;;;20.90;13.95;;;3.90;99.90;;;;;;5055752;28;20049;-77
2022/03/20 07:17:02;;;;;;;23.35;14.18;;;3.90;99.90;;;;;;5054686;28;20170;-77
2022/03/20 07:19:28;;;;;;;19.83;13.38;;;4.00;99.90;;;;;;5022949;28;20138;-77
2022/03/20 07:21:54;;;;;;;25.42;14.38;;;4.10;99.90;;;;;;5055022;28;20084;-78
2022/03/20 07:24:19;;;;;;;20.17;13.18;;;4.20;99.90;;;;;;5039432;28;20126;-78
2022/03/20 07:29:29;;;;;;;20.92;13.77;;;4.40;99.90;;;;;;5055730;28;20275;-78
2022/03/20 07:31:57;;;;;;;20.52;13.38;;;4.50;99.90;;;;;;5055131;28;20044;-78
2022/03/20 07:34:23;;;;;;;19.05;12.90;;;4.80;99.90;;;;;;5055923;28;20489;-78
2022/03/20 07:36:50;;;;;;;20.92;13.27;;;4.90;99.90;;;;;;5055550;28;20055;-78
2022/03/20 07:39:16;;;;;;;23.80;14.20;;;5.20;99.90;;;;;;5054859;28;20370;-78
2022/03/20 07:41:42;;;;;;;22.77;13.77;;;5.40;99.90;;;;;;5039129;28;20574;-79
2022/03/20 07:44:08;;;;;;;21.40;13.18;;;5.40;99.90;;;;;;5055191;28;20120;-78
2022/03/20 07:46:34;;;;;;;20.63;13.93;;;5.70;99.90;;;;;;5055555;28;20079;-78
2022/03/20 07:49:00;;;;;;;20.50;13.30;;;5.70;99.90;;;;;;5055118;28;20044;-78
2022/03/20 07:51:29;;;;;;;16.92;11.75;;;5.80;99.90;;;;;;5055506;28;20124;-78
2022/03/20 07:53:56;;;;;;;21.92;13.60;;;5.80;99.90;;;;;;5038725;28;20492;-78
2022/03/20 07:56:22;;;;;;;21.13;13.63;;;5.60;99.90;;;;;;5039101;28;20111;-79
2022/03/20 07:58:48;;;;;;;22.15;13.80;;;5.30;99.90;;;;;;5055409;28;20128;-78
2022/03/20 08:01:14;;;;;;;;;;;5.20;99.90;;;;;;5055083;28;20060;-78
2022/03/20 08:03:41;;;;;;;21.23;13.70;;;5.50;99.90;;;;;;5039037;28;20342;-79
2022/03/20 08:06:07;;;;;;;;;;;6.00;99.90;;;;;;5055775;28;20049;-78
2022/03/20 08:08:33;;;;;;;21.88;13.32;;;6.40;99.90;;;;;;5055689;28;20011;-79
2022/03/20 08:10:58;;;;;;;19.95;13.27;;;6.90;99.90;;;;;;5054684;28;20064;-79
2022/03/20 08:13:24;;;;;;;22.83;13.60;;;6.90;99.90;;;;;;5055693;28;20037;-77
2022/03/20 08:15:50;;;;;;;21.67;13.67;;;7.20;99.90;;;;;;5054866;28;20291;-79
2022/03/20 08:18:15;;;;;;;20.83;13.40;;;7.50;99.90;;;;;;5050711;28;20063;-78
2022/03/20 08:20:42;;;;;;;21.13;13.43;;;7.40;99.90;;;;;;5035997;28;20388;-79
2022/03/20 08:23:08;;;;;;;;;;;7.50;99.90;;;;;;5052120;28;20087;-78
2022/03/20 08:25:33;;;;;;;19.98;12.85;;;7.70;99.90;;;;;;5052114;28;20355;-79
2022/03/20 08:27:59;;;;;;;19.70;12.73;;;7.70;99.90;;;;;;5051630;28;20488;-79
2022/03/20 08:30:25;;;;;;;21.58;13.35;;;7.80;99.90;;;;;;5051857;28;20060;-79
2022/03/20 08:32:53;;;;;;;20.38;12.93;;;8.10;99.90;;;;;;5051728;28;20041;-79
2022/03/20 08:35:20;;;;;;;22.90;13.98;;;8.00;99.90;;;;;;5034803;28;20508;-79
2022/03/20 08:37:47;;;;;;;20.50;14.15;;;8.20;99.90;;;;;;5051856;28;20128;-79
2022/03/20 08:40:15;;;;;;;22.02;13.30;;;8.50;99.90;;;;;;5051192;28;20168;-78
2022/03/20 08:42:53;;;;;;;20.65;13.35;;;8.70;99.90;;;;;;5034933;28;20464;-78
2022/03/20 08:45:20;;;;;;;20.30;13.82;;;8.60;99.90;;;;;;5033654;28;20179;-79
2022/03/20 08:47:47;;;;;;;21.27;14.38;;;8.70;99.90;;;;;;5051658;28;20045;-78
2022/03/20 08:50:14;;;;;;;20.58;14.05;;;9.00;99.90;;;;;;5051016;28;20090;-78
2022/03/20 08:52:44;;;;;;;22.55;14.35;;;9.20;99.90;;;;;;5051822;28;20519;-78
2022/03/20 08:55:11;;;;;;;21.63;14.30;;;9.40;99.90;;;;;;5051327;28;20060;-78
2022/03/20 08:57:46;;;;;;;22.98;14.82;;;9.50;99.90;;;;;;5051317;28;20059;-78
2022/03/20 09:00:19;;;;;;;26.90;13.90;;;9.50;99.90;;;;;;5051170;28;20103;-78
2022/03/20 09:02:46;;;;;;;21.10;14.13;;;9.70;99.90;;;;;;5047633;28;20124;-78
2022/03/20 09:05:12;;;;;;;21.63;14.13;;;10.10;99.90;;;;;;5047487;28;20120;-79
2022/03/20 09:07:43;;;;;;;22.50;14.38;;;10.30;99.90;;;;;;4998655;28;20382;-78
2022/03/20 09:10:09;;;;;;;20.85;14.57;;;10.60;99.90;;;;;;5047430;28;20058;-78
2022/03/20 09:12:37;;;;;;;20.33;14.85;;;10.80;97.80;;;;;;5047848;28;20053;-79
2022/03/20 09:15:04;;;;;;;21.00;14.55;;;10.40;97.70;;;;;;5047580;28;20416;-78
2022/03/20 09:20:16;;;;;;;21.83;14.90;;;10.10;98.20;;;;;;5030533;28;20092;-78
2022/03/20 09:22:42;;;;;;;21.63;14.40;;;9.70;98.50;;;;;;5030837;28;20042;-78
2022/03/20 09:25:08;;;;;;;21.77;14.43;;;9.90;98.90;;;;;;5030769;28;20112;-77
2022/03/20 09:27:37;;;;;;;20.02;14.30;;;10.30;98.90;;;;;;5014890;28;20704;-78
2022/03/20 09:30:05;;;;;;;20.65;14.50;;;10.30;98.30;;;;;;5030284;28;20064;-79
2022/03/20 09:32:30;;;;;;;20.90;15.15;;;10.40;98.30;;;;;;5014824;28;20038;-78
2022/03/20 09:34:56;;;;;;;21.13;14.48;;;10.70;98.30;;;;;;5040698;28;20048;-78
2022/03/20 09:37:22;;;;;;;25.45;15.30;;;11.30;95.30;;;;;;5050362;28;20056;-78
2022/03/20 09:39:47;;;;;;;23.75;15.55;;;11.10;95.30;;;;;;5050882;28;20072;-79
2022/03/20 09:42:13;;;;;;;23.30;15.48;;;11.20;94.20;;;;;;5033445;28;20045;-78
2022/03/20 09:44:40;;;;;;;22.40;14.98;;;11.10;94.90;;;;;;5050714;28;20060;-78
2022/03/20 09:47:10;;;;;;;;;;;11.60;93.70;;;;;;5050465;28;20033;-77
2022/03/20 09:49:36;;;;;;;24.27;14.90;;;11.60;93.70;;;;;;5050379;28;19995;-79
2022/03/20 09:52:07;;;;;;;25.52;15.88;;;12.00;92.10;;;;;;5051173;28;20049;-78
2022/03/20 09:54:34;;;;;;;20.40;14.93;;;12.50;91.40;;;;;;5033865;28;20049;-78
2022/03/20 09:57:08;;;;;;;23.25;14.55;;;12.30;91.10;;;;;;5050298;28;20048;-78
2022/03/20 09:59:36;;;;;;;23.65;16.15;;;12.30;90.00;;;;;;5050356;28;20040;-78
2022/03/20 10:02:03;;;;;;;21.63;15.30;;;12.30;89.50;;;;;;5050026;28;20053;-78
2022/03/20 10:04:29;;;;;;;24.38;15.73;;;12.60;90.40;;;;;;5033758;28;20095;-78
2022/03/20 10:06:55;;;;;;;22.52;15.52;;;12.50;86.60;;;;;;5049980;28;20041;-77
2022/03/20 10:09:23;;;;;;;20.88;14.57;;;12.60;85.60;;;;;;5051223;28;20039;-78
2022/03/20 10:11:52;;;;;;;23.08;15.77;;;12.30;86.70;;;;;;5033412;28;20068;-78
2022/03/20 10:14:18;;;;;;;26.15;15.85;;;12.40;87.50;;;;;;5032773;28;20045;-77
2022/03/20 10:16:54;;;;;;;21.40;14.73;;;12.90;86.30;;;;;;5033225;28;20045;-78
2022/03/20 10:19:23;;;;;;;23.65;15.88;;;12.60;86.40;;;;;;5033216;28;20128;-77
2022/03/20 10:21:59;;;;;;;20.73;14.55;;;13.00;85.60;;;;;;5032890;28;20088;-77
2022/03/20 10:24:27;;;;;;;20.10;15.33;;;13.10;84.30;;;;;;5033078;28;20421;-78
2022/03/20 10:27:04;;;;;;;23.55;16.05;;;13.40;84.00;;;;;;5033294;28;20427;-78
2022/03/20 10:29:32;;;;;;;21.70;15.50;;;13.60;84.00;;;;;;5033555;28;20045;-78
2022/03/20 10:32:08;;;;;;;21.15;15.55;;;13.70;82.00;;;;;;5032930;28;20125;-77
2022/03/20 10:34:53;;;;;;;22.38;15.80;;;13.70;80.10;;;;;;5033502;28;20044;-78
2022/03/20 10:37:21;;;;;;;23.77;16.05;;;13.60;79.80;;;;;;5032093;28;20087;-78
2022/03/20 10:39:47;;;;;;;23.08;15.27;;;13.30;78.60;;;;;;5032420;28;20099;-78
2022/03/20 10:42:14;;;;;;;22.58;16.08;;;13.20;79.60;;;;;;5016027;28;20496;-78
2022/03/20 10:44:40;;;;;;;22.25;15.02;;;13.50;80.60;;;;;;5012864;28;20103;-78
2022/03/20 10:47:13;;;;;;;23.95;16.83;;;13.60;80.60;;;;;;5050442;28;20051;-78
2022/03/20 10:49:42;;;;;;;23.13;15.85;;;14.10;78.10;;;;;;5032768;28;20268;-77
2022/03/20 10:52:10;;;;;;;22.33;15.88;;;14.50;79.70;;;;;;5015830;28;20082;-78
2022/03/20 10:54:40;;;;;;;23.55;16.10;;;14.70;78.60;;;;;;5016368;28;20056;-76
2022/03/20 10:57:06;;;;;;;22.08;15.75;;;14.70;77.50;;;;;;5033040;28;20396;-77
2022/03/20 10:59:33;;;;;;;23.80;15.90;;;15.10;77.50;;;;;;5032669;28;20045;-77
2022/03/20 11:01:59;;;;;;;25.75;16.48;;;14.70;74.90;;;;;;5032068;28;20037;-77
2022/03/20 11:04:25;;;;;;;23.20;15.88;;;14.50;75.60;;;;;;5032131;28;20120;-77
2022/03/20 11:06:57;;;;;;;21.90;15.88;;;14.50;75.90;;;;;;5032654;28;20037;-77
2022/03/20 11:09:23;;;;;;;22.50;16.05;;;14.30;76.20;;;;;;5032445;28;20098;-77
2022/03/20 11:11:52;;;;;;;24.85;16.02;;;14.70;76.10;;;;;;5035779;28;20536;-77
2022/03/20 11:14:20;;;;;;;23.70;16.25;;;15.20;74.60;;;;;;5051890;28;20052;-77
2022/03/20 11:16:51;;;;;;;24.42;16.75;;;15.60;73.90;;;;;;5052441;28;20044;-78
2022/03/20 11:19:26;;;;;;;23.85;16.15;;;15.50;73.40;;;;;;5034960;28;20106;-78
2022/03/20 11:21:54;;;;;;;26.35;17.17;;;15.10;74.00;;;;;;5052592;28;20040;-78
2022/03/20 11:24:20;;;;;;;27.02;17.30;;;14.70;72.50;;;;;;5052072;28;20170;-77
2022/03/20 11:26:52;;;;;;;25.77;17.33;;;14.70;73.40;;;;;;5052583;28;20037;-78
2022/03/20 11:29:21;;;;;;;24.17;16.52;;;14.30;74.30;;;;;;5052238;28;20480;-78
2022/03/20 11:31:48;;;;;;;22.55;16.50;;;14.80;73.00;;;;;;5052450;28;20044;-78
2022/03/20 11:34:16;;;;;;;23.50;15.52;;;14.90;74.60;;;;;;5051821;28;20048;-78
2022/03/20 11:37:10;;;;;;;23.92;16.55;;;15.40;72.00;;;;;;5051663;28;20045;-78
2022/03/20 11:39:57;;;;;;;23.85;16.17;;;15.10;72.20;;;;;;5036000;28;20228;-78
2022/03/20 11:42:28;;;;;;;25.55;16.98;;;15.20;72.80;;;;;;5051546;28;20499;-78
2022/03/20 11:45:00;;;;;;;26.23;16.60;;;15.70;71.30;;;;;;5052203;28;20065;-78
2022/03/20 11:47:34;;;;;;;23.00;15.93;;;15.40;72.40;;;;;;5052262;28;20404;-78
2022/03/20 11:50:14;;;;;;;24.58;17.10;;;15.60;71.50;;;;;;5051995;28;20075;-77
2022/03/20 11:53:00;;;;;;;22.83;17.08;;;15.40;70.20;;;;;;5036988;28;20111;-77
2022/03/20 11:55:34;;;;;;;23.02;16.50;;;15.40;71.20;;;;;;5039062;28;20045;-78
2022/03/20 11:58:10;;;;;;;24.20;16.08;;;15.40;70.70;;;;;;5056006;28;20491;-78
2022/03/20 12:00:42;;;;;;;25.50;17.20;;;15.50;71.10;;;;;;5039742;28;20435;-77
2022/03/20 12:03:13;;;;;;;25.98;16.13;;;16.20;70.20;;;;;;5055816;28;20045;-78
2022/03/20 12:05:42;;;;;;;24.67;16.77;;;16.40;69.40;;;;;;5055859;28;20140;-78
2022/03/20 12:08:45;;;;;;;25.50;16.42;;;16.40;70.30;;;;;;5056011;28;20036;-78
2022/03/20 12:11:29;;;;;;;25.13;16.85;;;16.40;68.50;;;;;;5051867;28;20061;-77
2022/03/20 12:14:10;;;;;;;23.83;16.02;;;15.90;69.30;;;;;;5052306;28;20040;-78
2022/03/20 12:16:45;;;;;;;25.73;16.60;;;16.10;69.40;;;;;;5052254;28;20041;-77
2022/03/20 12:19:16;;;;;;;23.23;16.38;;;16.70;69.10;;;;;;5052462;28;20048;-76
2022/03/20 12:21:57;;;;;;;23.55;15.25;;;16.70;68.00;;;;;;5052168;28;20123;-78
2022/03/20 12:24:35;;;;;;;27.13;16.83;;;16.40;66.90;;;;;;5051901;28;20052;-78
2022/03/20 12:27:23;;;;;;;24.58;16.48;;;16.30;67.90;;;;;;5051720;28;20049;-78
2022/03/20 12:29:48;;;;;;;;;;;16.40;67.70;;;;;;5035807;28;20033;-78
2022/03/20 12:32:15;;;;;;;24.30;16.25;;;16.40;67.60;;;;;;5051723;28;19917;-78
2022/03/20 12:34:42;;;;;;;23.55;15.93;;;16.50;68.50;;;;;;5035668;28;20535;-78
2022/03/20 12:37:29;;;;;;;25.13;17.00;;;16.50;67.20;;;;;;5051689;28;20118;-77
2022/03/20 12:40:05;;;;;;;22.23;15.95;;;16.50;67.80;;;;;;5052131;28;20098;-77
2022/03/20 12:42:32;;;;;;;23.45;16.95;;;16.30;67.10;;;;;;5051423;28;20091;-77
2022/03/20 12:44:59;;;;;;;23.85;15.63;;;16.30;67.20;;;;;;5051386;28;20095;-76
2022/03/20 12:47:27;;;;;;;23.80;16.80;;;16.30;67.80;;;;;;5051431;28;20048;-77
2022/03/20 12:49:58;;;;;;;22.73;16.40;;;16.00;66.60;;;;;;5051422;28;20052;-77
2022/03/20 12:52:24;;;;;;;25.40;16.80;;;16.30;66.90;;;;;;5051206;28;20079;-77
2022/03/20 12:55:03;;;;;;;23.33;15.40;;;16.10;66.80;;;;;;5051539;28;20053;-78
2022/03/20 12:57:40;;;;;;;23.25;16.13;;;16.10;67.40;;;;;;5051165;28;20127;-77
2022/03/20 13:00:16;;;;;;;;;;;16.10;67.80;;;;;;5051669;28;20110;-77
2022/03/20 13:03:00;;;;;;;25.02;16.63;;;16.60;66.00;;;;;;5050240;28;20011;-78
2022/03/20 13:05:40;;;;;;;27.88;17.67;;;16.50;65.70;;;;;;5047267;28;20037;-77
2022/03/20 13:08:07;;;;;;;26.35;16.25;;;16.30;67.20;;;;;;5047822;28;20120;-77
2022/03/20 13:10:38;;;;;;;20.98;15.25;;;16.50;67.50;;;;;;5014293;28;20111;-77
2022/03/20 13:13:06;;;;;;;25.17;16.02;;;16.70;66.10;;;;;;5031070;28;20041;-76
2022/03/20 13:15:37;;;;;;;23.85;16.67;;;16.70;65.30;;;;;;5047384;28;20099;-76
2022/03/20 13:18:06;;;;;;;25.48;16.95;;;16.00;66.10;;;;;;5047647;28;20046;-77